<?xml version="1.0" encoding="UTF-8" standalone="no" ?>
<gpx xmlns="http://www.topografix.com/GPX/1/1" xmlns:xsi="http://www.w3.org/2001/XMLSchema-instance" xsi:schemaLocation="http://www.topografix.com/GPX/1/1 http://www.topografix.com/GPX/1/1/gpx.xsd" version="1.1" creator="VisuGPX - https://www.visugpx.com">
  <metadata>
    <name>14784168-rando clisson-vertou original</name>
  </metadata>
  <trk>
    <name><![CDATA[14784168-rando clisson-vertou original]]></name>
    <trkseg>
      <trkpt lat="47.08633" lon="-1.28612">
        <ele>41</ele>
        <time>2022-05-20T13:51:34Z</time>
      </trkpt>
      <trkpt lat="47.0863" lon="-1.28605">
        <ele>41</ele>
        <time>2022-05-20T13:51:42Z</time>
      </trkpt>
      <trkpt lat="47.08638" lon="-1.28585">
        <ele>41</ele>
        <time>2022-05-20T13:52:03Z</time>
      </trkpt>
      <trkpt lat="47.08676" lon="-1.28528">
        <ele>41</ele>
        <time>2022-05-20T13:53:15Z</time>
      </trkpt>
      <trkpt lat="47.08688" lon="-1.28502">
        <ele>41</ele>
        <time>2022-05-20T13:53:44Z</time>
      </trkpt>
      <trkpt lat="47.08702" lon="-1.28487">
        <ele>40</ele>
        <time>2022-05-20T13:54:07Z</time>
      </trkpt>
      <trkpt lat="47.0873" lon="-1.28434">
        <ele>39</ele>
        <time>2022-05-20T13:55:08Z</time>
      </trkpt>
      <trkpt lat="47.08775" lon="-1.28372">
        <ele>39</ele>
        <time>2022-05-20T13:56:30Z</time>
      </trkpt>
      <trkpt lat="47.08812" lon="-1.28292">
        <ele>37</ele>
        <time>2022-05-20T13:57:58Z</time>
      </trkpt>
      <trkpt lat="47.0881" lon="-1.28284">
        <ele>36</ele>
        <time>2022-05-20T13:58:06Z</time>
      </trkpt>
      <trkpt lat="47.08775" lon="-1.28254">
        <ele>37</ele>
        <time>2022-05-20T13:59:00Z</time>
      </trkpt>
      <trkpt lat="47.08734" lon="-1.28243">
        <ele>38</ele>
        <time>2022-05-20T13:59:55Z</time>
      </trkpt>
      <trkpt lat="47.0872" lon="-1.28245">
        <ele>38</ele>
        <time>2022-05-20T14:00:14Z</time>
      </trkpt>
      <trkpt lat="47.08712" lon="-1.2824">
        <ele>38</ele>
        <time>2022-05-20T14:00:26Z</time>
      </trkpt>
      <trkpt lat="47.08706" lon="-1.28233">
        <ele>38</ele>
        <time>2022-05-20T14:00:36Z</time>
      </trkpt>
      <trkpt lat="47.08711" lon="-1.28197">
        <ele>37</ele>
        <time>2022-05-20T14:01:09Z</time>
      </trkpt>
      <trkpt lat="47.08701" lon="-1.28182">
        <ele>37</ele>
        <time>2022-05-20T14:01:28Z</time>
      </trkpt>
      <trkpt lat="47.08694" lon="-1.28178">
        <ele>37</ele>
        <time>2022-05-20T14:01:38Z</time>
      </trkpt>
      <trkpt lat="47.0869" lon="-1.2818">
        <ele>37</ele>
        <time>2022-05-20T14:01:44Z</time>
      </trkpt>
      <trkpt lat="47.08696" lon="-1.2818">
        <ele>37</ele>
        <time>2022-05-20T14:01:52Z</time>
      </trkpt>
      <trkpt lat="47.08688" lon="-1.28168">
        <ele>37</ele>
        <time>2022-05-20T14:02:07Z</time>
      </trkpt>
      <trkpt lat="47.08684" lon="-1.28145">
        <ele>35</ele>
        <time>2022-05-20T14:02:29Z</time>
      </trkpt>
      <trkpt lat="47.08684" lon="-1.28103">
        <ele>30</ele>
        <time>2022-05-20T14:03:07Z</time>
      </trkpt>
      <trkpt lat="47.0869" lon="-1.28072">
        <ele>27</ele>
        <time>2022-05-20T14:03:36Z</time>
      </trkpt>
      <trkpt lat="47.08681" lon="-1.28053">
        <ele>25</ele>
        <time>2022-05-20T14:03:57Z</time>
      </trkpt>
      <trkpt lat="47.08679" lon="-1.2803">
        <ele>23</ele>
        <time>2022-05-20T14:04:18Z</time>
      </trkpt>
      <trkpt lat="47.08682" lon="-1.28014">
        <ele>21</ele>
        <time>2022-05-20T14:04:34Z</time>
      </trkpt>
      <trkpt lat="47.08711" lon="-1.27946">
        <ele>16</ele>
        <time>2022-05-20T14:05:46Z</time>
      </trkpt>
      <trkpt lat="47.08716" lon="-1.27922">
        <ele>16</ele>
        <time>2022-05-20T14:06:09Z</time>
      </trkpt>
      <trkpt lat="47.08726" lon="-1.27909">
        <ele>15</ele>
        <time>2022-05-20T14:06:27Z</time>
      </trkpt>
      <trkpt lat="47.08726" lon="-1.27885">
        <ele>16</ele>
        <time>2022-05-20T14:06:49Z</time>
      </trkpt>
      <trkpt lat="47.08708" lon="-1.27867">
        <ele>16</ele>
        <time>2022-05-20T14:07:18Z</time>
      </trkpt>
      <trkpt lat="47.08706" lon="-1.27859">
        <ele>16</ele>
        <time>2022-05-20T14:07:26Z</time>
      </trkpt>
      <trkpt lat="47.08678" lon="-1.27826">
        <ele>16</ele>
        <time>2022-05-20T14:08:14Z</time>
      </trkpt>
      <trkpt lat="47.08649" lon="-1.27781">
        <ele>17</ele>
        <time>2022-05-20T14:09:10Z</time>
      </trkpt>
      <trkpt lat="47.08633" lon="-1.2773">
        <ele>19</ele>
        <time>2022-05-20T14:10:01Z</time>
      </trkpt>
      <trkpt lat="47.08634" lon="-1.27715">
        <ele>20</ele>
        <time>2022-05-20T14:10:15Z</time>
      </trkpt>
      <trkpt lat="47.08628" lon="-1.27704">
        <ele>21</ele>
        <time>2022-05-20T14:10:27Z</time>
      </trkpt>
      <trkpt lat="47.08573" lon="-1.27705">
        <ele>22</ele>
        <time>2022-05-20T14:11:41Z</time>
      </trkpt>
      <trkpt lat="47.08557" lon="-1.277">
        <ele>22</ele>
        <time>2022-05-20T14:12:03Z</time>
      </trkpt>
      <trkpt lat="47.08543" lon="-1.27701">
        <ele>22</ele>
        <time>2022-05-20T14:12:21Z</time>
      </trkpt>
      <trkpt lat="47.0852" lon="-1.27685">
        <ele>22</ele>
        <time>2022-05-20T14:12:55Z</time>
      </trkpt>
      <trkpt lat="47.08472" lon="-1.27665">
        <ele>21</ele>
        <time>2022-05-20T14:14:02Z</time>
      </trkpt>
      <trkpt lat="47.08448" lon="-1.27631">
        <ele>22</ele>
        <time>2022-05-20T14:14:46Z</time>
      </trkpt>
      <trkpt lat="47.08426" lon="-1.27609">
        <ele>21</ele>
        <time>2022-05-20T14:15:22Z</time>
      </trkpt>
      <trkpt lat="47.08375" lon="-1.27561">
        <ele>19</ele>
        <time>2022-05-20T14:16:43Z</time>
      </trkpt>
      <trkpt lat="47.08348" lon="-1.27541">
        <ele>18</ele>
        <time>2022-05-20T14:17:23Z</time>
      </trkpt>
      <trkpt lat="47.08341" lon="-1.27525">
        <ele>18</ele>
        <time>2022-05-20T14:17:40Z</time>
      </trkpt>
      <trkpt lat="47.08342" lon="-1.2749">
        <ele>18</ele>
        <time>2022-05-20T14:18:12Z</time>
      </trkpt>
      <trkpt lat="47.08334" lon="-1.27447">
        <ele>16</ele>
        <time>2022-05-20T14:18:53Z</time>
      </trkpt>
      <trkpt lat="47.08347" lon="-1.27385">
        <ele>18</ele>
        <time>2022-05-20T14:19:52Z</time>
      </trkpt>
      <trkpt lat="47.08362" lon="-1.27347">
        <ele>20</ele>
        <time>2022-05-20T14:20:32Z</time>
      </trkpt>
      <trkpt lat="47.08359" lon="-1.27318">
        <ele>19</ele>
        <time>2022-05-20T14:20:58Z</time>
      </trkpt>
      <trkpt lat="47.08367" lon="-1.27264">
        <ele>21</ele>
        <time>2022-05-20T14:21:48Z</time>
      </trkpt>
      <trkpt lat="47.08381" lon="-1.27245">
        <ele>22</ele>
        <time>2022-05-20T14:22:14Z</time>
      </trkpt>
      <trkpt lat="47.08405" lon="-1.27192">
        <ele>21</ele>
        <time>2022-05-20T14:23:12Z</time>
      </trkpt>
      <trkpt lat="47.0842" lon="-1.27168">
        <ele>19</ele>
        <time>2022-05-20T14:23:41Z</time>
      </trkpt>
      <trkpt lat="47.08438" lon="-1.27154">
        <ele>21</ele>
        <time>2022-05-20T14:24:08Z</time>
      </trkpt>
      <trkpt lat="47.08483" lon="-1.27106">
        <ele>20</ele>
        <time>2022-05-20T14:25:23Z</time>
      </trkpt>
      <trkpt lat="47.08509" lon="-1.2709">
        <ele>20</ele>
        <time>2022-05-20T14:26:00Z</time>
      </trkpt>
      <trkpt lat="47.08522" lon="-1.27091">
        <ele>22</ele>
        <time>2022-05-20T14:26:18Z</time>
      </trkpt>
      <trkpt lat="47.08525" lon="-1.27085">
        <ele>21</ele>
        <time>2022-05-20T14:26:24Z</time>
      </trkpt>
      <trkpt lat="47.08536" lon="-1.27098">
        <ele>24</ele>
        <time>2022-05-20T14:26:43Z</time>
      </trkpt>
      <trkpt lat="47.08536" lon="-1.27127">
        <ele>27</ele>
        <time>2022-05-20T14:27:10Z</time>
      </trkpt>
      <trkpt lat="47.08545" lon="-1.27157">
        <ele>30</ele>
        <time>2022-05-20T14:27:39Z</time>
      </trkpt>
      <trkpt lat="47.0857" lon="-1.27177">
        <ele>33</ele>
        <time>2022-05-20T14:28:17Z</time>
      </trkpt>
      <trkpt lat="47.08598" lon="-1.27222">
        <ele>34</ele>
        <time>2022-05-20T14:29:13Z</time>
      </trkpt>
      <trkpt lat="47.08599" lon="-1.27254">
        <ele>34</ele>
        <time>2022-05-20T14:29:42Z</time>
      </trkpt>
      <trkpt lat="47.08589" lon="-1.27312">
        <ele>37</ele>
        <time>2022-05-20T14:30:36Z</time>
      </trkpt>
      <trkpt lat="47.08591" lon="-1.27335">
        <ele>38</ele>
        <time>2022-05-20T14:30:57Z</time>
      </trkpt>
      <trkpt lat="47.08603" lon="-1.27364">
        <ele>37</ele>
        <time>2022-05-20T14:31:28Z</time>
      </trkpt>
      <trkpt lat="47.08604" lon="-1.27377">
        <ele>37</ele>
        <time>2022-05-20T14:31:40Z</time>
      </trkpt>
      <trkpt lat="47.08544" lon="-1.27525">
        <ele>36</ele>
        <time>2022-05-20T14:34:17Z</time>
      </trkpt>
      <trkpt lat="47.08535" lon="-1.2754">
        <ele>35</ele>
        <time>2022-05-20T14:34:35Z</time>
      </trkpt>
      <trkpt lat="47.08528" lon="-1.27544">
        <ele>35</ele>
        <time>2022-05-20T14:34:45Z</time>
      </trkpt>
      <trkpt lat="47.08508" lon="-1.2754">
        <ele>35</ele>
        <time>2022-05-20T14:35:12Z</time>
      </trkpt>
      <trkpt lat="47.08496" lon="-1.27548">
        <ele>34</ele>
        <time>2022-05-20T14:35:29Z</time>
      </trkpt>
      <trkpt lat="47.08484" lon="-1.27571">
        <ele>30</ele>
        <time>2022-05-20T14:35:56Z</time>
      </trkpt>
      <trkpt lat="47.08486" lon="-1.27593">
        <ele>29</ele>
        <time>2022-05-20T14:36:16Z</time>
      </trkpt>
      <trkpt lat="47.08495" lon="-1.27607">
        <ele>29</ele>
        <time>2022-05-20T14:36:33Z</time>
      </trkpt>
      <trkpt lat="47.08504" lon="-1.27613">
        <ele>29</ele>
        <time>2022-05-20T14:36:46Z</time>
      </trkpt>
      <trkpt lat="47.08517" lon="-1.27605">
        <ele>30</ele>
        <time>2022-05-20T14:37:05Z</time>
      </trkpt>
      <trkpt lat="47.08531" lon="-1.2761">
        <ele>30</ele>
        <time>2022-05-20T14:37:25Z</time>
      </trkpt>
      <trkpt lat="47.08564" lon="-1.27655">
        <ele>26</ele>
        <time>2022-05-20T14:38:25Z</time>
      </trkpt>
      <trkpt lat="47.08578" lon="-1.27664">
        <ele>26</ele>
        <time>2022-05-20T14:38:45Z</time>
      </trkpt>
      <trkpt lat="47.0858" lon="-1.27671">
        <ele>25</ele>
        <time>2022-05-20T14:38:52Z</time>
      </trkpt>
      <trkpt lat="47.08571" lon="-1.27684">
        <ele>24</ele>
        <time>2022-05-20T14:39:09Z</time>
      </trkpt>
      <trkpt lat="47.08585" lon="-1.27702">
        <ele>23</ele>
        <time>2022-05-20T14:39:34Z</time>
      </trkpt>
      <trkpt lat="47.08622" lon="-1.27699">
        <ele>22</ele>
        <time>2022-05-20T14:40:23Z</time>
      </trkpt>
      <trkpt lat="47.08628" lon="-1.27705">
        <ele>21</ele>
        <time>2022-05-20T14:40:33Z</time>
      </trkpt>
      <trkpt lat="47.08644" lon="-1.27706">
        <ele>20</ele>
        <time>2022-05-20T14:40:54Z</time>
      </trkpt>
      <trkpt lat="47.08644" lon="-1.27748">
        <ele>17</ele>
        <time>2022-05-20T14:41:32Z</time>
      </trkpt>
      <trkpt lat="47.08649" lon="-1.27771">
        <ele>17</ele>
        <time>2022-05-20T14:41:54Z</time>
      </trkpt>
      <trkpt lat="47.08659" lon="-1.27791">
        <ele>17</ele>
        <time>2022-05-20T14:42:17Z</time>
      </trkpt>
      <trkpt lat="47.08688" lon="-1.27829">
        <ele>16</ele>
        <time>2022-05-20T14:43:09Z</time>
      </trkpt>
      <trkpt lat="47.08697" lon="-1.27835">
        <ele>16</ele>
        <time>2022-05-20T14:43:22Z</time>
      </trkpt>
      <trkpt lat="47.08754" lon="-1.27918">
        <ele>15</ele>
        <time>2022-05-20T14:45:09Z</time>
      </trkpt>
      <trkpt lat="47.08768" lon="-1.27928">
        <ele>16</ele>
        <time>2022-05-20T14:45:30Z</time>
      </trkpt>
      <trkpt lat="47.08785" lon="-1.27932">
        <ele>17</ele>
        <time>2022-05-20T14:45:53Z</time>
      </trkpt>
      <trkpt lat="47.08813" lon="-1.27924">
        <ele>19</ele>
        <time>2022-05-20T14:46:31Z</time>
      </trkpt>
      <trkpt lat="47.08829" lon="-1.27913">
        <ele>21</ele>
        <time>2022-05-20T14:46:54Z</time>
      </trkpt>
      <trkpt lat="47.08851" lon="-1.27869">
        <ele>25</ele>
        <time>2022-05-20T14:47:44Z</time>
      </trkpt>
      <trkpt lat="47.08862" lon="-1.27858">
        <ele>27</ele>
        <time>2022-05-20T14:48:02Z</time>
      </trkpt>
      <trkpt lat="47.08884" lon="-1.27866">
        <ele>29</ele>
        <time>2022-05-20T14:48:32Z</time>
      </trkpt>
      <trkpt lat="47.08913" lon="-1.27861">
        <ele>33</ele>
        <time>2022-05-20T14:49:11Z</time>
      </trkpt>
      <trkpt lat="47.08944" lon="-1.2788">
        <ele>34</ele>
        <time>2022-05-20T14:49:56Z</time>
      </trkpt>
      <trkpt lat="47.08961" lon="-1.27884">
        <ele>34</ele>
        <time>2022-05-20T14:50:19Z</time>
      </trkpt>
      <trkpt lat="47.08983" lon="-1.27954">
        <ele>33</ele>
        <time>2022-05-20T14:51:29Z</time>
      </trkpt>
      <trkpt lat="47.09029" lon="-1.28009">
        <ele>33</ele>
        <time>2022-05-20T14:52:48Z</time>
      </trkpt>
      <trkpt lat="47.09083" lon="-1.2804">
        <ele>30</ele>
        <time>2022-05-20T14:54:05Z</time>
      </trkpt>
      <trkpt lat="47.09104" lon="-1.28044">
        <ele>30</ele>
        <time>2022-05-20T14:54:33Z</time>
      </trkpt>
      <trkpt lat="47.09128" lon="-1.28068">
        <ele>28</ele>
        <time>2022-05-20T14:55:12Z</time>
      </trkpt>
      <trkpt lat="47.09151" lon="-1.28079">
        <ele>28</ele>
        <time>2022-05-20T14:55:45Z</time>
      </trkpt>
      <trkpt lat="47.09156" lon="-1.28096">
        <ele>27</ele>
        <time>2022-05-20T14:56:01Z</time>
      </trkpt>
      <trkpt lat="47.09141" lon="-1.28124">
        <ele>22</ele>
        <time>2022-05-20T14:56:34Z</time>
      </trkpt>
      <trkpt lat="47.09148" lon="-1.28139">
        <ele>21</ele>
        <time>2022-05-20T14:56:50Z</time>
      </trkpt>
      <trkpt lat="47.09185" lon="-1.28164">
        <ele>22</ele>
        <time>2022-05-20T14:57:45Z</time>
      </trkpt>
      <trkpt lat="47.09209" lon="-1.28149">
        <ele>24</ele>
        <time>2022-05-20T14:58:19Z</time>
      </trkpt>
      <trkpt lat="47.09215" lon="-1.2815">
        <ele>25</ele>
        <time>2022-05-20T14:58:27Z</time>
      </trkpt>
      <trkpt lat="47.09217" lon="-1.28167">
        <ele>24</ele>
        <time>2022-05-20T14:58:43Z</time>
      </trkpt>
      <trkpt lat="47.09281" lon="-1.28338">
        <ele>17</ele>
        <time>2022-05-20T15:01:40Z</time>
      </trkpt>
      <trkpt lat="47.09285" lon="-1.28345">
        <ele>17</ele>
        <time>2022-05-20T15:01:49Z</time>
      </trkpt>
      <trkpt lat="47.09294" lon="-1.28348">
        <ele>18</ele>
        <time>2022-05-20T15:02:01Z</time>
      </trkpt>
      <trkpt lat="47.09342" lon="-1.28413">
        <ele>15</ele>
        <time>2022-05-20T15:03:28Z</time>
      </trkpt>
      <trkpt lat="47.09375" lon="-1.28436">
        <ele>17</ele>
        <time>2022-05-20T15:04:17Z</time>
      </trkpt>
      <trkpt lat="47.09441" lon="-1.2847">
        <ele>17</ele>
        <time>2022-05-20T15:05:50Z</time>
      </trkpt>
      <trkpt lat="47.09458" lon="-1.28476">
        <ele>17</ele>
        <time>2022-05-20T15:06:14Z</time>
      </trkpt>
      <trkpt lat="47.09488" lon="-1.28471">
        <ele>19</ele>
        <time>2022-05-20T15:06:54Z</time>
      </trkpt>
      <trkpt lat="47.09499" lon="-1.28478">
        <ele>18</ele>
        <time>2022-05-20T15:07:10Z</time>
      </trkpt>
      <trkpt lat="47.09515" lon="-1.28478">
        <ele>19</ele>
        <time>2022-05-20T15:07:31Z</time>
      </trkpt>
      <trkpt lat="47.09536" lon="-1.28485">
        <ele>20</ele>
        <time>2022-05-20T15:08:00Z</time>
      </trkpt>
      <trkpt lat="47.09594" lon="-1.28548">
        <ele>16</ele>
        <time>2022-05-20T15:09:36Z</time>
      </trkpt>
      <trkpt lat="47.0961" lon="-1.28555">
        <ele>16</ele>
        <time>2022-05-20T15:09:58Z</time>
      </trkpt>
      <trkpt lat="47.09624" lon="-1.2857">
        <ele>14</ele>
        <time>2022-05-20T15:10:22Z</time>
      </trkpt>
      <trkpt lat="47.09698" lon="-1.28627">
        <ele>12</ele>
        <time>2022-05-20T15:12:13Z</time>
      </trkpt>
      <trkpt lat="47.09724" lon="-1.28637">
        <ele>12</ele>
        <time>2022-05-20T15:12:49Z</time>
      </trkpt>
      <trkpt lat="47.09734" lon="-1.28648">
        <ele>11</ele>
        <time>2022-05-20T15:13:06Z</time>
      </trkpt>
      <trkpt lat="47.09773" lon="-1.28672">
        <ele>11</ele>
        <time>2022-05-20T15:14:02Z</time>
      </trkpt>
      <trkpt lat="47.09804" lon="-1.2871">
        <ele>11</ele>
        <time>2022-05-20T15:14:56Z</time>
      </trkpt>
      <trkpt lat="47.09822" lon="-1.28765">
        <ele>11</ele>
        <time>2022-05-20T15:15:51Z</time>
      </trkpt>
      <trkpt lat="47.09818" lon="-1.28808">
        <ele>12</ele>
        <time>2022-05-20T15:16:31Z</time>
      </trkpt>
      <trkpt lat="47.09803" lon="-1.28853">
        <ele>12</ele>
        <time>2022-05-20T15:17:16Z</time>
      </trkpt>
      <trkpt lat="47.09802" lon="-1.28898">
        <ele>13</ele>
        <time>2022-05-20T15:17:57Z</time>
      </trkpt>
      <trkpt lat="47.09816" lon="-1.28955">
        <ele>11</ele>
        <time>2022-05-20T15:18:52Z</time>
      </trkpt>
      <trkpt lat="47.09817" lon="-1.28973">
        <ele>11</ele>
        <time>2022-05-20T15:19:09Z</time>
      </trkpt>
      <trkpt lat="47.09824" lon="-1.28987">
        <ele>10</ele>
        <time>2022-05-20T15:19:24Z</time>
      </trkpt>
      <trkpt lat="47.09838" lon="-1.28989">
        <ele>9</ele>
        <time>2022-05-20T15:19:43Z</time>
      </trkpt>
      <trkpt lat="47.09878" lon="-1.28959">
        <ele>14</ele>
        <time>2022-05-20T15:20:43Z</time>
      </trkpt>
      <trkpt lat="47.09891" lon="-1.28958">
        <ele>16</ele>
        <time>2022-05-20T15:21:01Z</time>
      </trkpt>
      <trkpt lat="47.09925" lon="-1.28989">
        <ele>17</ele>
        <time>2022-05-20T15:21:54Z</time>
      </trkpt>
      <trkpt lat="47.09935" lon="-1.28991">
        <ele>18</ele>
        <time>2022-05-20T15:22:07Z</time>
      </trkpt>
      <trkpt lat="47.09942" lon="-1.28988">
        <ele>18</ele>
        <time>2022-05-20T15:22:17Z</time>
      </trkpt>
      <trkpt lat="47.09941" lon="-1.28975">
        <ele>19</ele>
        <time>2022-05-20T15:22:29Z</time>
      </trkpt>
      <trkpt lat="47.09952" lon="-1.2894">
        <ele>22</ele>
        <time>2022-05-20T15:23:04Z</time>
      </trkpt>
      <trkpt lat="47.09951" lon="-1.28903">
        <ele>24</ele>
        <time>2022-05-20T15:23:38Z</time>
      </trkpt>
      <trkpt lat="47.09984" lon="-1.28861">
        <ele>27</ele>
        <time>2022-05-20T15:24:36Z</time>
      </trkpt>
      <trkpt lat="47.10013" lon="-1.28813">
        <ele>29</ele>
        <time>2022-05-20T15:25:34Z</time>
      </trkpt>
      <trkpt lat="47.10038" lon="-1.28748">
        <ele>28</ele>
        <time>2022-05-20T15:26:42Z</time>
      </trkpt>
      <trkpt lat="47.10065" lon="-1.28771">
        <ele>29</ele>
        <time>2022-05-20T15:27:24Z</time>
      </trkpt>
      <trkpt lat="47.10087" lon="-1.28798">
        <ele>29</ele>
        <time>2022-05-20T15:28:02Z</time>
      </trkpt>
      <trkpt lat="47.10098" lon="-1.28818">
        <ele>28</ele>
        <time>2022-05-20T15:28:25Z</time>
      </trkpt>
      <trkpt lat="47.10108" lon="-1.28827">
        <ele>27</ele>
        <time>2022-05-20T15:28:41Z</time>
      </trkpt>
      <trkpt lat="47.10117" lon="-1.28847">
        <ele>25</ele>
        <time>2022-05-20T15:29:03Z</time>
      </trkpt>
      <trkpt lat="47.10144" lon="-1.28882">
        <ele>23</ele>
        <time>2022-05-20T15:29:51Z</time>
      </trkpt>
      <trkpt lat="47.10178" lon="-1.28908">
        <ele>20</ele>
        <time>2022-05-20T15:30:42Z</time>
      </trkpt>
      <trkpt lat="47.10194" lon="-1.28917">
        <ele>20</ele>
        <time>2022-05-20T15:31:05Z</time>
      </trkpt>
      <trkpt lat="47.10212" lon="-1.28921">
        <ele>19</ele>
        <time>2022-05-20T15:31:29Z</time>
      </trkpt>
      <trkpt lat="47.10232" lon="-1.28935">
        <ele>18</ele>
        <time>2022-05-20T15:31:59Z</time>
      </trkpt>
      <trkpt lat="47.10246" lon="-1.28954">
        <ele>17</ele>
        <time>2022-05-20T15:32:24Z</time>
      </trkpt>
      <trkpt lat="47.10264" lon="-1.29026">
        <ele>17</ele>
        <time>2022-05-20T15:33:34Z</time>
      </trkpt>
      <trkpt lat="47.10254" lon="-1.29129">
        <ele>17</ele>
        <time>2022-05-20T15:35:08Z</time>
      </trkpt>
      <trkpt lat="47.10255" lon="-1.29182">
        <ele>17</ele>
        <time>2022-05-20T15:35:56Z</time>
      </trkpt>
      <trkpt lat="47.1025" lon="-1.292">
        <ele>17</ele>
        <time>2022-05-20T15:36:14Z</time>
      </trkpt>
      <trkpt lat="47.10253" lon="-1.29255">
        <ele>16</ele>
        <time>2022-05-20T15:37:04Z</time>
      </trkpt>
      <trkpt lat="47.1026" lon="-1.29276">
        <ele>16</ele>
        <time>2022-05-20T15:37:25Z</time>
      </trkpt>
      <trkpt lat="47.10275" lon="-1.29309">
        <ele>17</ele>
        <time>2022-05-20T15:38:02Z</time>
      </trkpt>
      <trkpt lat="47.10303" lon="-1.2934">
        <ele>19</ele>
        <time>2022-05-20T15:38:48Z</time>
      </trkpt>
      <trkpt lat="47.1032" lon="-1.29354">
        <ele>19</ele>
        <time>2022-05-20T15:39:14Z</time>
      </trkpt>
      <trkpt lat="47.10341" lon="-1.29364">
        <ele>20</ele>
        <time>2022-05-20T15:39:44Z</time>
      </trkpt>
      <trkpt lat="47.10361" lon="-1.29386">
        <ele>21</ele>
        <time>2022-05-20T15:40:17Z</time>
      </trkpt>
      <trkpt lat="47.10376" lon="-1.29396">
        <ele>22</ele>
        <time>2022-05-20T15:40:39Z</time>
      </trkpt>
      <trkpt lat="47.10397" lon="-1.29421">
        <ele>23</ele>
        <time>2022-05-20T15:41:15Z</time>
      </trkpt>
      <trkpt lat="47.10406" lon="-1.29446">
        <ele>22</ele>
        <time>2022-05-20T15:41:41Z</time>
      </trkpt>
      <trkpt lat="47.10427" lon="-1.29483">
        <ele>21</ele>
        <time>2022-05-20T15:42:25Z</time>
      </trkpt>
      <trkpt lat="47.10471" lon="-1.29526">
        <ele>23</ele>
        <time>2022-05-20T15:43:35Z</time>
      </trkpt>
      <trkpt lat="47.10482" lon="-1.29559">
        <ele>21</ele>
        <time>2022-05-20T15:44:08Z</time>
      </trkpt>
      <trkpt lat="47.10493" lon="-1.29571">
        <ele>22</ele>
        <time>2022-05-20T15:44:27Z</time>
      </trkpt>
      <trkpt lat="47.10532" lon="-1.29651">
        <ele>21</ele>
        <time>2022-05-20T15:45:56Z</time>
      </trkpt>
      <trkpt lat="47.10557" lon="-1.29711">
        <ele>21</ele>
        <time>2022-05-20T15:47:00Z</time>
      </trkpt>
      <trkpt lat="47.10566" lon="-1.29768">
        <ele>17</ele>
        <time>2022-05-20T15:47:53Z</time>
      </trkpt>
      <trkpt lat="47.10576" lon="-1.29782">
        <ele>17</ele>
        <time>2022-05-20T15:48:12Z</time>
      </trkpt>
      <trkpt lat="47.10599" lon="-1.29836">
        <ele>16</ele>
        <time>2022-05-20T15:49:10Z</time>
      </trkpt>
      <trkpt lat="47.10612" lon="-1.29851">
        <ele>18</ele>
        <time>2022-05-20T15:49:32Z</time>
      </trkpt>
      <trkpt lat="47.10633" lon="-1.29928">
        <ele>17</ele>
        <time>2022-05-20T15:50:47Z</time>
      </trkpt>
      <trkpt lat="47.10638" lon="-1.2994">
        <ele>17</ele>
        <time>2022-05-20T15:51:00Z</time>
      </trkpt>
      <trkpt lat="47.10645" lon="-1.29943">
        <ele>18</ele>
        <time>2022-05-20T15:51:09Z</time>
      </trkpt>
      <trkpt lat="47.1065" lon="-1.29991">
        <ele>17</ele>
        <time>2022-05-20T15:51:54Z</time>
      </trkpt>
      <trkpt lat="47.10675" lon="-1.30111">
        <ele>16</ele>
        <time>2022-05-20T15:53:48Z</time>
      </trkpt>
      <trkpt lat="47.10684" lon="-1.30193">
        <ele>16</ele>
        <time>2022-05-20T15:55:03Z</time>
      </trkpt>
      <trkpt lat="47.10719" lon="-1.30295">
        <ele>17</ele>
        <time>2022-05-20T15:56:47Z</time>
      </trkpt>
      <trkpt lat="47.10742" lon="-1.30345">
        <ele>16</ele>
        <time>2022-05-20T15:57:42Z</time>
      </trkpt>
      <trkpt lat="47.10753" lon="-1.30357">
        <ele>16</ele>
        <time>2022-05-20T15:58:00Z</time>
      </trkpt>
      <trkpt lat="47.10763" lon="-1.30384">
        <ele>17</ele>
        <time>2022-05-20T15:58:28Z</time>
      </trkpt>
      <trkpt lat="47.10763" lon="-1.30407">
        <ele>16</ele>
        <time>2022-05-20T15:58:49Z</time>
      </trkpt>
      <trkpt lat="47.10739" lon="-1.30424">
        <ele>13</ele>
        <time>2022-05-20T15:59:24Z</time>
      </trkpt>
      <trkpt lat="47.10695" lon="-1.30441">
        <ele>11</ele>
        <time>2022-05-20T16:00:25Z</time>
      </trkpt>
      <trkpt lat="47.10662" lon="-1.30447">
        <ele>9</ele>
        <time>2022-05-20T16:01:09Z</time>
      </trkpt>
      <trkpt lat="47.10639" lon="-1.3046">
        <ele>10</ele>
        <time>2022-05-20T16:01:42Z</time>
      </trkpt>
      <trkpt lat="47.10569" lon="-1.3048">
        <ele>13</ele>
        <time>2022-05-20T16:03:17Z</time>
      </trkpt>
      <trkpt lat="47.10563" lon="-1.30499">
        <ele>13</ele>
        <time>2022-05-20T16:03:36Z</time>
      </trkpt>
      <trkpt lat="47.10579" lon="-1.30587">
        <ele>10</ele>
        <time>2022-05-20T16:04:59Z</time>
      </trkpt>
      <trkpt lat="47.10574" lon="-1.3062">
        <ele>12</ele>
        <time>2022-05-20T16:05:30Z</time>
      </trkpt>
      <trkpt lat="47.10562" lon="-1.30646">
        <ele>14</ele>
        <time>2022-05-20T16:05:58Z</time>
      </trkpt>
      <trkpt lat="47.10507" lon="-1.3073">
        <ele>23</ele>
        <time>2022-05-20T16:07:44Z</time>
      </trkpt>
      <trkpt lat="47.10525" lon="-1.30749">
        <ele>23</ele>
        <time>2022-05-20T16:08:14Z</time>
      </trkpt>
      <trkpt lat="47.10569" lon="-1.30812">
        <ele>25</ele>
        <time>2022-05-20T16:09:36Z</time>
      </trkpt>
      <trkpt lat="47.10643" lon="-1.30894">
        <ele>26</ele>
        <time>2022-05-20T16:11:39Z</time>
      </trkpt>
      <trkpt lat="47.10667" lon="-1.30925">
        <ele>26</ele>
        <time>2022-05-20T16:12:22Z</time>
      </trkpt>
      <trkpt lat="47.10679" lon="-1.30949">
        <ele>26</ele>
        <time>2022-05-20T16:12:49Z</time>
      </trkpt>
      <trkpt lat="47.10715" lon="-1.31051">
        <ele>29</ele>
        <time>2022-05-20T16:14:33Z</time>
      </trkpt>
      <trkpt lat="47.10727" lon="-1.31101">
        <ele>30</ele>
        <time>2022-05-20T16:15:22Z</time>
      </trkpt>
      <trkpt lat="47.10753" lon="-1.31162">
        <ele>29</ele>
        <time>2022-05-20T16:16:27Z</time>
      </trkpt>
      <trkpt lat="47.10778" lon="-1.31243">
        <ele>30</ele>
        <time>2022-05-20T16:17:48Z</time>
      </trkpt>
      <trkpt lat="47.10826" lon="-1.3135">
        <ele>32</ele>
        <time>2022-05-20T16:19:44Z</time>
      </trkpt>
      <trkpt lat="47.10822" lon="-1.31377">
        <ele>32</ele>
        <time>2022-05-20T16:20:09Z</time>
      </trkpt>
      <trkpt lat="47.10805" lon="-1.31404">
        <ele>33</ele>
        <time>2022-05-20T16:20:43Z</time>
      </trkpt>
      <trkpt lat="47.10808" lon="-1.31415">
        <ele>33</ele>
        <time>2022-05-20T16:20:53Z</time>
      </trkpt>
      <trkpt lat="47.10971" lon="-1.31632">
        <ele>29</ele>
        <time>2022-05-20T16:25:47Z</time>
      </trkpt>
      <trkpt lat="47.10984" lon="-1.31668">
        <ele>28</ele>
        <time>2022-05-20T16:26:24Z</time>
      </trkpt>
      <trkpt lat="47.11003" lon="-1.3168">
        <ele>28</ele>
        <time>2022-05-20T16:26:52Z</time>
      </trkpt>
      <trkpt lat="47.11034" lon="-1.31715">
        <ele>29</ele>
        <time>2022-05-20T16:27:44Z</time>
      </trkpt>
      <trkpt lat="47.11127" lon="-1.31841">
        <ele>28</ele>
        <time>2022-05-20T16:30:33Z</time>
      </trkpt>
      <trkpt lat="47.11139" lon="-1.31866">
        <ele>28</ele>
        <time>2022-05-20T16:31:00Z</time>
      </trkpt>
      <trkpt lat="47.11159" lon="-1.31887">
        <ele>27</ele>
        <time>2022-05-20T16:31:33Z</time>
      </trkpt>
      <trkpt lat="47.11165" lon="-1.31886">
        <ele>26</ele>
        <time>2022-05-20T16:31:41Z</time>
      </trkpt>
      <trkpt lat="47.11173" lon="-1.31876">
        <ele>26</ele>
        <time>2022-05-20T16:31:55Z</time>
      </trkpt>
      <trkpt lat="47.11178" lon="-1.3186">
        <ele>25</ele>
        <time>2022-05-20T16:32:11Z</time>
      </trkpt>
      <trkpt lat="47.11287" lon="-1.31645">
        <ele>13</ele>
        <time>2022-05-20T16:36:15Z</time>
      </trkpt>
      <trkpt lat="47.11326" lon="-1.31583">
        <ele>10</ele>
        <time>2022-05-20T16:37:31Z</time>
      </trkpt>
      <trkpt lat="47.11337" lon="-1.3157">
        <ele>10</ele>
        <time>2022-05-20T16:37:50Z</time>
      </trkpt>
      <trkpt lat="47.11354" lon="-1.3156">
        <ele>10</ele>
        <time>2022-05-20T16:38:15Z</time>
      </trkpt>
      <trkpt lat="47.11372" lon="-1.31568">
        <ele>9</ele>
        <time>2022-05-20T16:38:40Z</time>
      </trkpt>
      <trkpt lat="47.11444" lon="-1.31616">
        <ele>8</ele>
        <time>2022-05-20T16:40:25Z</time>
      </trkpt>
      <trkpt lat="47.11526" lon="-1.31716">
        <ele>10</ele>
        <time>2022-05-20T16:42:47Z</time>
      </trkpt>
      <trkpt lat="47.11556" lon="-1.31744">
        <ele>11</ele>
        <time>2022-05-20T16:43:35Z</time>
      </trkpt>
      <trkpt lat="47.11562" lon="-1.31754">
        <ele>11</ele>
        <time>2022-05-20T16:43:47Z</time>
      </trkpt>
      <trkpt lat="47.11608" lon="-1.3185">
        <ele>10</ele>
        <time>2022-05-20T16:45:34Z</time>
      </trkpt>
      <trkpt lat="47.11615" lon="-1.31878">
        <ele>10</ele>
        <time>2022-05-20T16:46:01Z</time>
      </trkpt>
      <trkpt lat="47.1167" lon="-1.31993">
        <ele>9</ele>
        <time>2022-05-20T16:48:08Z</time>
      </trkpt>
      <trkpt lat="47.11675" lon="-1.32012">
        <ele>9</ele>
        <time>2022-05-20T16:48:27Z</time>
      </trkpt>
      <trkpt lat="47.11673" lon="-1.32026">
        <ele>9</ele>
        <time>2022-05-20T16:48:40Z</time>
      </trkpt>
      <trkpt lat="47.11664" lon="-1.3204">
        <ele>10</ele>
        <time>2022-05-20T16:48:57Z</time>
      </trkpt>
      <trkpt lat="47.11646" lon="-1.32053">
        <ele>11</ele>
        <time>2022-05-20T16:49:24Z</time>
      </trkpt>
      <trkpt lat="47.11626" lon="-1.32078">
        <ele>14</ele>
        <time>2022-05-20T16:49:59Z</time>
      </trkpt>
      <trkpt lat="47.11626" lon="-1.32095">
        <ele>15</ele>
        <time>2022-05-20T16:50:15Z</time>
      </trkpt>
      <trkpt lat="47.11634" lon="-1.32125">
        <ele>17</ele>
        <time>2022-05-20T16:50:44Z</time>
      </trkpt>
      <trkpt lat="47.11657" lon="-1.32157">
        <ele>18</ele>
        <time>2022-05-20T16:51:26Z</time>
      </trkpt>
      <trkpt lat="47.1166" lon="-1.3218">
        <ele>20</ele>
        <time>2022-05-20T16:51:47Z</time>
      </trkpt>
      <trkpt lat="47.11648" lon="-1.32249">
        <ele>25</ele>
        <time>2022-05-20T16:52:52Z</time>
      </trkpt>
      <trkpt lat="47.11615" lon="-1.32309">
        <ele>28</ele>
        <time>2022-05-20T16:54:02Z</time>
      </trkpt>
      <trkpt lat="47.11591" lon="-1.32328">
        <ele>28</ele>
        <time>2022-05-20T16:54:38Z</time>
      </trkpt>
      <trkpt lat="47.11593" lon="-1.32346">
        <ele>28</ele>
        <time>2022-05-20T16:54:55Z</time>
      </trkpt>
      <trkpt lat="47.11619" lon="-1.32397">
        <ele>30</ele>
        <time>2022-05-20T16:55:53Z</time>
      </trkpt>
      <trkpt lat="47.11675" lon="-1.32446">
        <ele>30</ele>
        <time>2022-05-20T16:57:20Z</time>
      </trkpt>
      <trkpt lat="47.11768" lon="-1.32538">
        <ele>27</ele>
        <time>2022-05-20T16:59:49Z</time>
      </trkpt>
      <trkpt lat="47.11784" lon="-1.32551">
        <ele>26</ele>
        <time>2022-05-20T17:00:14Z</time>
      </trkpt>
      <trkpt lat="47.11799" lon="-1.32557">
        <ele>25</ele>
        <time>2022-05-20T17:00:35Z</time>
      </trkpt>
      <trkpt lat="47.11803" lon="-1.32568">
        <ele>25</ele>
        <time>2022-05-20T17:00:46Z</time>
      </trkpt>
      <trkpt lat="47.11798" lon="-1.32577">
        <ele>26</ele>
        <time>2022-05-20T17:00:56Z</time>
      </trkpt>
      <trkpt lat="47.11799" lon="-1.32588">
        <ele>26</ele>
        <time>2022-05-20T17:01:07Z</time>
      </trkpt>
      <trkpt lat="47.11773" lon="-1.32629">
        <ele>27</ele>
        <time>2022-05-20T17:01:57Z</time>
      </trkpt>
      <trkpt lat="47.11745" lon="-1.32698">
        <ele>29</ele>
        <time>2022-05-20T17:03:10Z</time>
      </trkpt>
      <trkpt lat="47.11738" lon="-1.32701">
        <ele>29</ele>
        <time>2022-05-20T17:03:20Z</time>
      </trkpt>
      <trkpt lat="47.1173" lon="-1.32695">
        <ele>29</ele>
        <time>2022-05-20T17:03:32Z</time>
      </trkpt>
      <trkpt lat="47.11711" lon="-1.32643">
        <ele>30</ele>
        <time>2022-05-20T17:04:26Z</time>
      </trkpt>
      <trkpt lat="47.11706" lon="-1.32643">
        <ele>31</ele>
        <time>2022-05-20T17:04:32Z</time>
      </trkpt>
      <trkpt lat="47.11691" lon="-1.3266">
        <ele>32</ele>
        <time>2022-05-20T17:04:58Z</time>
      </trkpt>
      <trkpt lat="47.11636" lon="-1.32763">
        <ele>34</ele>
        <time>2022-05-20T17:06:57Z</time>
      </trkpt>
      <trkpt lat="47.11634" lon="-1.32798">
        <ele>34</ele>
        <time>2022-05-20T17:07:28Z</time>
      </trkpt>
      <trkpt lat="47.11652" lon="-1.32866">
        <ele>34</ele>
        <time>2022-05-20T17:08:35Z</time>
      </trkpt>
      <trkpt lat="47.11655" lon="-1.32899">
        <ele>36</ele>
        <time>2022-05-20T17:09:05Z</time>
      </trkpt>
      <trkpt lat="47.11668" lon="-1.32956">
        <ele>36</ele>
        <time>2022-05-20T17:10:00Z</time>
      </trkpt>
      <trkpt lat="47.11674" lon="-1.32969">
        <ele>36</ele>
        <time>2022-05-20T17:10:14Z</time>
      </trkpt>
      <trkpt lat="47.11698" lon="-1.32984">
        <ele>36</ele>
        <time>2022-05-20T17:10:49Z</time>
      </trkpt>
      <trkpt lat="47.11741" lon="-1.32974">
        <ele>35</ele>
        <time>2022-05-20T17:11:47Z</time>
      </trkpt>
      <trkpt lat="47.11787" lon="-1.32977">
        <ele>35</ele>
        <time>2022-05-20T17:12:48Z</time>
      </trkpt>
      <trkpt lat="47.11819" lon="-1.32964">
        <ele>35</ele>
        <time>2022-05-20T17:13:32Z</time>
      </trkpt>
      <trkpt lat="47.11874" lon="-1.32922">
        <ele>35</ele>
        <time>2022-05-20T17:14:55Z</time>
      </trkpt>
      <trkpt lat="47.119" lon="-1.32881">
        <ele>34</ele>
        <time>2022-05-20T17:15:46Z</time>
      </trkpt>
      <trkpt lat="47.11901" lon="-1.32852">
        <ele>33</ele>
        <time>2022-05-20T17:16:12Z</time>
      </trkpt>
      <trkpt lat="47.11908" lon="-1.32821">
        <ele>32</ele>
        <time>2022-05-20T17:16:42Z</time>
      </trkpt>
      <trkpt lat="47.11922" lon="-1.32796">
        <ele>32</ele>
        <time>2022-05-20T17:17:12Z</time>
      </trkpt>
      <trkpt lat="47.11934" lon="-1.32785">
        <ele>32</ele>
        <time>2022-05-20T17:17:30Z</time>
      </trkpt>
      <trkpt lat="47.11927" lon="-1.32748">
        <ele>31</ele>
        <time>2022-05-20T17:18:05Z</time>
      </trkpt>
      <trkpt lat="47.11935" lon="-1.32734">
        <ele>31</ele>
        <time>2022-05-20T17:18:22Z</time>
      </trkpt>
      <trkpt lat="47.11944" lon="-1.32736">
        <ele>31</ele>
        <time>2022-05-20T17:18:34Z</time>
      </trkpt>
      <trkpt lat="47.12026" lon="-1.3282">
        <ele>32</ele>
        <time>2022-05-20T17:20:47Z</time>
      </trkpt>
      <trkpt lat="47.12051" lon="-1.32851">
        <ele>32</ele>
        <time>2022-05-20T17:21:31Z</time>
      </trkpt>
      <trkpt lat="47.12066" lon="-1.32863">
        <ele>33</ele>
        <time>2022-05-20T17:21:54Z</time>
      </trkpt>
      <trkpt lat="47.12077" lon="-1.32854">
        <ele>32</ele>
        <time>2022-05-20T17:22:11Z</time>
      </trkpt>
      <trkpt lat="47.12096" lon="-1.32809">
        <ele>32</ele>
        <time>2022-05-20T17:22:59Z</time>
      </trkpt>
      <trkpt lat="47.12144" lon="-1.32731">
        <ele>32</ele>
        <time>2022-05-20T17:24:34Z</time>
      </trkpt>
      <trkpt lat="47.12167" lon="-1.32712">
        <ele>31</ele>
        <time>2022-05-20T17:25:09Z</time>
      </trkpt>
      <trkpt lat="47.12186" lon="-1.32712">
        <ele>30</ele>
        <time>2022-05-20T17:25:35Z</time>
      </trkpt>
      <trkpt lat="47.12206" lon="-1.32729">
        <ele>29</ele>
        <time>2022-05-20T17:26:06Z</time>
      </trkpt>
      <trkpt lat="47.12222" lon="-1.32756">
        <ele>29</ele>
        <time>2022-05-20T17:26:38Z</time>
      </trkpt>
      <trkpt lat="47.12278" lon="-1.32828">
        <ele>29</ele>
        <time>2022-05-20T17:28:17Z</time>
      </trkpt>
      <trkpt lat="47.12286" lon="-1.32846">
        <ele>29</ele>
        <time>2022-05-20T17:28:37Z</time>
      </trkpt>
      <trkpt lat="47.12307" lon="-1.32927">
        <ele>28</ele>
        <time>2022-05-20T17:29:56Z</time>
      </trkpt>
      <trkpt lat="47.12377" lon="-1.3309">
        <ele>25</ele>
        <time>2022-05-20T17:32:51Z</time>
      </trkpt>
      <trkpt lat="47.12473" lon="-1.33176">
        <ele>27</ele>
        <time>2022-05-20T17:35:21Z</time>
      </trkpt>
      <trkpt lat="47.12522" lon="-1.33205">
        <ele>26</ele>
        <time>2022-05-20T17:36:31Z</time>
      </trkpt>
      <trkpt lat="47.12525" lon="-1.33226">
        <ele>26</ele>
        <time>2022-05-20T17:36:51Z</time>
      </trkpt>
      <trkpt lat="47.12492" lon="-1.33307">
        <ele>30</ele>
        <time>2022-05-20T17:38:16Z</time>
      </trkpt>
      <trkpt lat="47.12489" lon="-1.33333">
        <ele>31</ele>
        <time>2022-05-20T17:38:40Z</time>
      </trkpt>
      <trkpt lat="47.12535" lon="-1.33376">
        <ele>28</ele>
        <time>2022-05-20T17:39:53Z</time>
      </trkpt>
      <trkpt lat="47.12555" lon="-1.334">
        <ele>27</ele>
        <time>2022-05-20T17:40:28Z</time>
      </trkpt>
      <trkpt lat="47.12624" lon="-1.33516">
        <ele>24</ele>
        <time>2022-05-20T17:42:47Z</time>
      </trkpt>
      <trkpt lat="47.12625" lon="-1.33548">
        <ele>24</ele>
        <time>2022-05-20T17:43:17Z</time>
      </trkpt>
      <trkpt lat="47.12635" lon="-1.33597">
        <ele>24</ele>
        <time>2022-05-20T17:44:03Z</time>
      </trkpt>
      <trkpt lat="47.12647" lon="-1.33699">
        <ele>21</ele>
        <time>2022-05-20T17:45:37Z</time>
      </trkpt>
      <trkpt lat="47.12667" lon="-1.33786">
        <ele>19</ele>
        <time>2022-05-20T17:47:00Z</time>
      </trkpt>
      <trkpt lat="47.12674" lon="-1.33839">
        <ele>18</ele>
        <time>2022-05-20T17:47:49Z</time>
      </trkpt>
      <trkpt lat="47.12684" lon="-1.33872">
        <ele>18</ele>
        <time>2022-05-20T17:48:22Z</time>
      </trkpt>
      <trkpt lat="47.12684" lon="-1.33891">
        <ele>18</ele>
        <time>2022-05-20T17:48:39Z</time>
      </trkpt>
      <trkpt lat="47.127" lon="-1.33929">
        <ele>18</ele>
        <time>2022-05-20T17:49:20Z</time>
      </trkpt>
      <trkpt lat="47.12707" lon="-1.33959">
        <ele>18</ele>
        <time>2022-05-20T17:49:49Z</time>
      </trkpt>
      <trkpt lat="47.12706" lon="-1.33976">
        <ele>18</ele>
        <time>2022-05-20T17:50:04Z</time>
      </trkpt>
      <trkpt lat="47.12716" lon="-1.34017">
        <ele>18</ele>
        <time>2022-05-20T17:50:44Z</time>
      </trkpt>
      <trkpt lat="47.12712" lon="-1.34047">
        <ele>19</ele>
        <time>2022-05-20T17:51:12Z</time>
      </trkpt>
      <trkpt lat="47.12724" lon="-1.34063">
        <ele>18</ele>
        <time>2022-05-20T17:51:33Z</time>
      </trkpt>
      <trkpt lat="47.12729" lon="-1.34081">
        <ele>18</ele>
        <time>2022-05-20T17:51:51Z</time>
      </trkpt>
      <trkpt lat="47.12727" lon="-1.34142">
        <ele>20</ele>
        <time>2022-05-20T17:52:46Z</time>
      </trkpt>
      <trkpt lat="47.12732" lon="-1.34184">
        <ele>21</ele>
        <time>2022-05-20T17:53:25Z</time>
      </trkpt>
      <trkpt lat="47.12735" lon="-1.34306">
        <ele>24</ele>
        <time>2022-05-20T17:55:16Z</time>
      </trkpt>
      <trkpt lat="47.12742" lon="-1.34329">
        <ele>25</ele>
        <time>2022-05-20T17:55:39Z</time>
      </trkpt>
      <trkpt lat="47.1278" lon="-1.34403">
        <ele>28</ele>
        <time>2022-05-20T17:57:03Z</time>
      </trkpt>
      <trkpt lat="47.12784" lon="-1.34427">
        <ele>30</ele>
        <time>2022-05-20T17:57:25Z</time>
      </trkpt>
      <trkpt lat="47.1278" lon="-1.34484">
        <ele>33</ele>
        <time>2022-05-20T17:58:17Z</time>
      </trkpt>
      <trkpt lat="47.12785" lon="-1.34523">
        <ele>34</ele>
        <time>2022-05-20T17:58:53Z</time>
      </trkpt>
      <trkpt lat="47.12819" lon="-1.34574">
        <ele>36</ele>
        <time>2022-05-20T17:59:58Z</time>
      </trkpt>
      <trkpt lat="47.12865" lon="-1.34676">
        <ele>38</ele>
        <time>2022-05-20T18:01:49Z</time>
      </trkpt>
      <trkpt lat="47.12882" lon="-1.34722">
        <ele>39</ele>
        <time>2022-05-20T18:02:37Z</time>
      </trkpt>
      <trkpt lat="47.12886" lon="-1.34747">
        <ele>40</ele>
        <time>2022-05-20T18:03:00Z</time>
      </trkpt>
      <trkpt lat="47.12907" lon="-1.34812">
        <ele>41</ele>
        <time>2022-05-20T18:04:05Z</time>
      </trkpt>
      <trkpt lat="47.1293" lon="-1.34903">
        <ele>41</ele>
        <time>2022-05-20T18:05:34Z</time>
      </trkpt>
      <trkpt lat="47.12938" lon="-1.34903">
        <ele>41</ele>
        <time>2022-05-20T18:05:44Z</time>
      </trkpt>
      <trkpt lat="47.12964" lon="-1.34886">
        <ele>40</ele>
        <time>2022-05-20T18:06:22Z</time>
      </trkpt>
      <trkpt lat="47.13062" lon="-1.34808">
        <ele>38</ele>
        <time>2022-05-20T18:08:51Z</time>
      </trkpt>
      <trkpt lat="47.13084" lon="-1.34803">
        <ele>37</ele>
        <time>2022-05-20T18:09:21Z</time>
      </trkpt>
      <trkpt lat="47.1314" lon="-1.34801">
        <ele>37</ele>
        <time>2022-05-20T18:10:35Z</time>
      </trkpt>
      <trkpt lat="47.13186" lon="-1.34788">
        <ele>36</ele>
        <time>2022-05-20T18:11:38Z</time>
      </trkpt>
      <trkpt lat="47.13249" lon="-1.34785">
        <ele>35</ele>
        <time>2022-05-20T18:13:02Z</time>
      </trkpt>
      <trkpt lat="47.13332" lon="-1.34773">
        <ele>35</ele>
        <time>2022-05-20T18:14:53Z</time>
      </trkpt>
      <trkpt lat="47.13343" lon="-1.34765">
        <ele>35</ele>
        <time>2022-05-20T18:15:10Z</time>
      </trkpt>
      <trkpt lat="47.13363" lon="-1.34736">
        <ele>35</ele>
        <time>2022-05-20T18:15:47Z</time>
      </trkpt>
      <trkpt lat="47.13382" lon="-1.34725">
        <ele>35</ele>
        <time>2022-05-20T18:16:14Z</time>
      </trkpt>
      <trkpt lat="47.13439" lon="-1.3473">
        <ele>35</ele>
        <time>2022-05-20T18:17:31Z</time>
      </trkpt>
      <trkpt lat="47.13491" lon="-1.34747">
        <ele>33</ele>
        <time>2022-05-20T18:18:42Z</time>
      </trkpt>
      <trkpt lat="47.1351" lon="-1.34759">
        <ele>32</ele>
        <time>2022-05-20T18:19:09Z</time>
      </trkpt>
      <trkpt lat="47.1354" lon="-1.34787">
        <ele>31</ele>
        <time>2022-05-20T18:19:57Z</time>
      </trkpt>
      <trkpt lat="47.13583" lon="-1.34814">
        <ele>29</ele>
        <time>2022-05-20T18:20:59Z</time>
      </trkpt>
      <trkpt lat="47.13616" lon="-1.34829">
        <ele>28</ele>
        <time>2022-05-20T18:21:45Z</time>
      </trkpt>
      <trkpt lat="47.13622" lon="-1.34825">
        <ele>28</ele>
        <time>2022-05-20T18:21:54Z</time>
      </trkpt>
      <trkpt lat="47.13632" lon="-1.34802">
        <ele>27</ele>
        <time>2022-05-20T18:22:19Z</time>
      </trkpt>
      <trkpt lat="47.13642" lon="-1.34758">
        <ele>27</ele>
        <time>2022-05-20T18:23:01Z</time>
      </trkpt>
      <trkpt lat="47.13645" lon="-1.34727">
        <ele>25</ele>
        <time>2022-05-20T18:23:29Z</time>
      </trkpt>
      <trkpt lat="47.13644" lon="-1.34622">
        <ele>22</ele>
        <time>2022-05-20T18:25:05Z</time>
      </trkpt>
      <trkpt lat="47.13652" lon="-1.34572">
        <ele>20</ele>
        <time>2022-05-20T18:25:51Z</time>
      </trkpt>
      <trkpt lat="47.13664" lon="-1.3456">
        <ele>19</ele>
        <time>2022-05-20T18:26:11Z</time>
      </trkpt>
      <trkpt lat="47.13707" lon="-1.34546">
        <ele>15</ele>
        <time>2022-05-20T18:27:09Z</time>
      </trkpt>
      <trkpt lat="47.13722" lon="-1.34552">
        <ele>13</ele>
        <time>2022-05-20T18:27:30Z</time>
      </trkpt>
      <trkpt lat="47.13742" lon="-1.3458">
        <ele>11</ele>
        <time>2022-05-20T18:28:07Z</time>
      </trkpt>
      <trkpt lat="47.13746" lon="-1.34609">
        <ele>11</ele>
        <time>2022-05-20T18:28:34Z</time>
      </trkpt>
      <trkpt lat="47.1374" lon="-1.34717">
        <ele>14</ele>
        <time>2022-05-20T18:30:12Z</time>
      </trkpt>
      <trkpt lat="47.13747" lon="-1.34753">
        <ele>14</ele>
        <time>2022-05-20T18:30:46Z</time>
      </trkpt>
      <trkpt lat="47.13742" lon="-1.34828">
        <ele>17</ele>
        <time>2022-05-20T18:31:55Z</time>
      </trkpt>
      <trkpt lat="47.13745" lon="-1.34835">
        <ele>17</ele>
        <time>2022-05-20T18:32:02Z</time>
      </trkpt>
      <trkpt lat="47.13751" lon="-1.34837">
        <ele>16</ele>
        <time>2022-05-20T18:32:10Z</time>
      </trkpt>
      <trkpt lat="47.13788" lon="-1.34821">
        <ele>11</ele>
        <time>2022-05-20T18:33:02Z</time>
      </trkpt>
      <trkpt lat="47.13796" lon="-1.34826">
        <ele>10</ele>
        <time>2022-05-20T18:33:14Z</time>
      </trkpt>
      <trkpt lat="47.138" lon="-1.34848">
        <ele>10</ele>
        <time>2022-05-20T18:33:34Z</time>
      </trkpt>
      <trkpt lat="47.13797" lon="-1.34863">
        <ele>11</ele>
        <time>2022-05-20T18:33:48Z</time>
      </trkpt>
      <trkpt lat="47.13799" lon="-1.34946">
        <ele>11</ele>
        <time>2022-05-20T18:35:04Z</time>
      </trkpt>
      <trkpt lat="47.13795" lon="-1.35027">
        <ele>11</ele>
        <time>2022-05-20T18:36:17Z</time>
      </trkpt>
      <trkpt lat="47.13781" lon="-1.35109">
        <ele>10</ele>
        <time>2022-05-20T18:37:34Z</time>
      </trkpt>
      <trkpt lat="47.13754" lon="-1.35152">
        <ele>11</ele>
        <time>2022-05-20T18:38:27Z</time>
      </trkpt>
      <trkpt lat="47.13731" lon="-1.35202">
        <ele>11</ele>
        <time>2022-05-20T18:39:22Z</time>
      </trkpt>
      <trkpt lat="47.13714" lon="-1.35221">
        <ele>12</ele>
        <time>2022-05-20T18:39:51Z</time>
      </trkpt>
      <trkpt lat="47.13719" lon="-1.35239">
        <ele>11</ele>
        <time>2022-05-20T18:40:08Z</time>
      </trkpt>
      <trkpt lat="47.13721" lon="-1.35289">
        <ele>10</ele>
        <time>2022-05-20T18:40:54Z</time>
      </trkpt>
      <trkpt lat="47.13728" lon="-1.35313">
        <ele>9</ele>
        <time>2022-05-20T18:41:17Z</time>
      </trkpt>
      <trkpt lat="47.13734" lon="-1.35325">
        <ele>9</ele>
        <time>2022-05-20T18:41:31Z</time>
      </trkpt>
      <trkpt lat="47.1375" lon="-1.35336">
        <ele>8</ele>
        <time>2022-05-20T18:41:55Z</time>
      </trkpt>
      <trkpt lat="47.13758" lon="-1.35372">
        <ele>9</ele>
        <time>2022-05-20T18:42:29Z</time>
      </trkpt>
      <trkpt lat="47.13767" lon="-1.35387">
        <ele>9</ele>
        <time>2022-05-20T18:42:47Z</time>
      </trkpt>
      <trkpt lat="47.13783" lon="-1.35444">
        <ele>9</ele>
        <time>2022-05-20T18:43:43Z</time>
      </trkpt>
      <trkpt lat="47.13777" lon="-1.35453">
        <ele>10</ele>
        <time>2022-05-20T18:43:54Z</time>
      </trkpt>
      <trkpt lat="47.13743" lon="-1.3548">
        <ele>12</ele>
        <time>2022-05-20T18:44:46Z</time>
      </trkpt>
      <trkpt lat="47.1367" lon="-1.355">
        <ele>16</ele>
        <time>2022-05-20T18:46:25Z</time>
      </trkpt>
      <trkpt lat="47.13664" lon="-1.35504">
        <ele>16</ele>
        <time>2022-05-20T18:46:34Z</time>
      </trkpt>
      <trkpt lat="47.13662" lon="-1.35513">
        <ele>16</ele>
        <time>2022-05-20T18:46:43Z</time>
      </trkpt>
      <trkpt lat="47.13717" lon="-1.35798">
        <ele>12</ele>
        <time>2022-05-20T18:51:11Z</time>
      </trkpt>
      <trkpt lat="47.13715" lon="-1.35873">
        <ele>10</ele>
        <time>2022-05-20T18:52:20Z</time>
      </trkpt>
      <trkpt lat="47.13713" lon="-1.3588">
        <ele>10</ele>
        <time>2022-05-20T18:52:26Z</time>
      </trkpt>
      <trkpt lat="47.13706" lon="-1.35881">
        <ele>10</ele>
        <time>2022-05-20T18:52:36Z</time>
      </trkpt>
      <trkpt lat="47.13679" lon="-1.35872">
        <ele>12</ele>
        <time>2022-05-20T18:53:13Z</time>
      </trkpt>
      <trkpt lat="47.13583" lon="-1.35823">
        <ele>13</ele>
        <time>2022-05-20T18:55:28Z</time>
      </trkpt>
      <trkpt lat="47.13561" lon="-1.35818">
        <ele>14</ele>
        <time>2022-05-20T18:55:58Z</time>
      </trkpt>
      <trkpt lat="47.13519" lon="-1.3591">
        <ele>13</ele>
        <time>2022-05-20T18:57:39Z</time>
      </trkpt>
      <trkpt lat="47.13512" lon="-1.35939">
        <ele>13</ele>
        <time>2022-05-20T18:58:07Z</time>
      </trkpt>
      <trkpt lat="47.13514" lon="-1.35962">
        <ele>14</ele>
        <time>2022-05-20T18:58:28Z</time>
      </trkpt>
      <trkpt lat="47.13536" lon="-1.36004">
        <ele>14</ele>
        <time>2022-05-20T18:59:16Z</time>
      </trkpt>
      <trkpt lat="47.13585" lon="-1.36072">
        <ele>13</ele>
        <time>2022-05-20T19:00:46Z</time>
      </trkpt>
      <trkpt lat="47.1359" lon="-1.36088">
        <ele>12</ele>
        <time>2022-05-20T19:01:02Z</time>
      </trkpt>
      <trkpt lat="47.13591" lon="-1.36205">
        <ele>10</ele>
        <time>2022-05-20T19:02:48Z</time>
      </trkpt>
      <trkpt lat="47.13586" lon="-1.36267">
        <ele>10</ele>
        <time>2022-05-20T19:03:45Z</time>
      </trkpt>
      <trkpt lat="47.13596" lon="-1.36305">
        <ele>10</ele>
        <time>2022-05-20T19:04:22Z</time>
      </trkpt>
      <trkpt lat="47.13605" lon="-1.36384">
        <ele>11</ele>
        <time>2022-05-20T19:05:34Z</time>
      </trkpt>
      <trkpt lat="47.13606" lon="-1.36477">
        <ele>15</ele>
        <time>2022-05-20T19:06:59Z</time>
      </trkpt>
      <trkpt lat="47.13597" lon="-1.36508">
        <ele>17</ele>
        <time>2022-05-20T19:07:29Z</time>
      </trkpt>
      <trkpt lat="47.13603" lon="-1.3654">
        <ele>19</ele>
        <time>2022-05-20T19:07:59Z</time>
      </trkpt>
      <trkpt lat="47.13611" lon="-1.36546">
        <ele>18</ele>
        <time>2022-05-20T19:08:11Z</time>
      </trkpt>
      <trkpt lat="47.1363" lon="-1.36587">
        <ele>17</ele>
        <time>2022-05-20T19:08:57Z</time>
      </trkpt>
      <trkpt lat="47.13654" lon="-1.36615">
        <ele>15</ele>
        <time>2022-05-20T19:09:37Z</time>
      </trkpt>
      <trkpt lat="47.13671" lon="-1.3665">
        <ele>16</ele>
        <time>2022-05-20T19:10:16Z</time>
      </trkpt>
      <trkpt lat="47.13684" lon="-1.36654">
        <ele>14</ele>
        <time>2022-05-20T19:10:34Z</time>
      </trkpt>
      <trkpt lat="47.13692" lon="-1.36665">
        <ele>14</ele>
        <time>2022-05-20T19:10:49Z</time>
      </trkpt>
      <trkpt lat="47.13719" lon="-1.36722">
        <ele>18</ele>
        <time>2022-05-20T19:11:52Z</time>
      </trkpt>
      <trkpt lat="47.13739" lon="-1.36733">
        <ele>16</ele>
        <time>2022-05-20T19:12:20Z</time>
      </trkpt>
      <trkpt lat="47.13758" lon="-1.36756">
        <ele>16</ele>
        <time>2022-05-20T19:12:53Z</time>
      </trkpt>
      <trkpt lat="47.13779" lon="-1.36769">
        <ele>15</ele>
        <time>2022-05-20T19:13:24Z</time>
      </trkpt>
      <trkpt lat="47.13789" lon="-1.36788">
        <ele>16</ele>
        <time>2022-05-20T19:13:45Z</time>
      </trkpt>
      <trkpt lat="47.13806" lon="-1.36795">
        <ele>14</ele>
        <time>2022-05-20T19:14:09Z</time>
      </trkpt>
      <trkpt lat="47.1381" lon="-1.36801">
        <ele>14</ele>
        <time>2022-05-20T19:14:17Z</time>
      </trkpt>
      <trkpt lat="47.13845" lon="-1.36872">
        <ele>14</ele>
        <time>2022-05-20T19:15:36Z</time>
      </trkpt>
      <trkpt lat="47.13854" lon="-1.36929">
        <ele>18</ele>
        <time>2022-05-20T19:16:29Z</time>
      </trkpt>
      <trkpt lat="47.13866" lon="-1.3696">
        <ele>17</ele>
        <time>2022-05-20T19:17:02Z</time>
      </trkpt>
      <trkpt lat="47.13886" lon="-1.36997">
        <ele>15</ele>
        <time>2022-05-20T19:17:45Z</time>
      </trkpt>
      <trkpt lat="47.13903" lon="-1.37008">
        <ele>13</ele>
        <time>2022-05-20T19:18:09Z</time>
      </trkpt>
      <trkpt lat="47.13917" lon="-1.37024">
        <ele>11</ele>
        <time>2022-05-20T19:18:33Z</time>
      </trkpt>
      <trkpt lat="47.1395" lon="-1.37104">
        <ele>12</ele>
        <time>2022-05-20T19:19:58Z</time>
      </trkpt>
      <trkpt lat="47.13966" lon="-1.37159">
        <ele>14</ele>
        <time>2022-05-20T19:20:52Z</time>
      </trkpt>
      <trkpt lat="47.13962" lon="-1.37229">
        <ele>16</ele>
        <time>2022-05-20T19:21:56Z</time>
      </trkpt>
      <trkpt lat="47.13983" lon="-1.37249">
        <ele>16</ele>
        <time>2022-05-20T19:22:29Z</time>
      </trkpt>
      <trkpt lat="47.13999" lon="-1.37256">
        <ele>16</ele>
        <time>2022-05-20T19:22:52Z</time>
      </trkpt>
      <trkpt lat="47.14022" lon="-1.37282">
        <ele>16</ele>
        <time>2022-05-20T19:23:30Z</time>
      </trkpt>
      <trkpt lat="47.14039" lon="-1.37288">
        <ele>15</ele>
        <time>2022-05-20T19:23:54Z</time>
      </trkpt>
      <trkpt lat="47.14084" lon="-1.3729">
        <ele>10</ele>
        <time>2022-05-20T19:24:54Z</time>
      </trkpt>
      <trkpt lat="47.14144" lon="-1.37282">
        <ele>9</ele>
        <time>2022-05-20T19:26:14Z</time>
      </trkpt>
      <trkpt lat="47.14165" lon="-1.37286">
        <ele>9</ele>
        <time>2022-05-20T19:26:42Z</time>
      </trkpt>
      <trkpt lat="47.14218" lon="-1.37273">
        <ele>10</ele>
        <time>2022-05-20T19:27:54Z</time>
      </trkpt>
      <trkpt lat="47.14231" lon="-1.37293">
        <ele>10</ele>
        <time>2022-05-20T19:28:19Z</time>
      </trkpt>
      <trkpt lat="47.14246" lon="-1.37304">
        <ele>10</ele>
        <time>2022-05-20T19:28:42Z</time>
      </trkpt>
      <trkpt lat="47.14265" lon="-1.37326">
        <ele>10</ele>
        <time>2022-05-20T19:29:14Z</time>
      </trkpt>
      <trkpt lat="47.14278" lon="-1.37332">
        <ele>11</ele>
        <time>2022-05-20T19:29:32Z</time>
      </trkpt>
      <trkpt lat="47.1429" lon="-1.37348">
        <ele>11</ele>
        <time>2022-05-20T19:29:54Z</time>
      </trkpt>
      <trkpt lat="47.14316" lon="-1.37388">
        <ele>10</ele>
        <time>2022-05-20T19:30:44Z</time>
      </trkpt>
      <trkpt lat="47.14333" lon="-1.37442">
        <ele>8</ele>
        <time>2022-05-20T19:31:38Z</time>
      </trkpt>
      <trkpt lat="47.14338" lon="-1.37476">
        <ele>8</ele>
        <time>2022-05-20T19:32:10Z</time>
      </trkpt>
      <trkpt lat="47.1435" lon="-1.37507">
        <ele>8</ele>
        <time>2022-05-20T19:32:42Z</time>
      </trkpt>
      <trkpt lat="47.14368" lon="-1.376">
        <ele>7</ele>
        <time>2022-05-20T19:34:10Z</time>
      </trkpt>
      <trkpt lat="47.14393" lon="-1.37661">
        <ele>7</ele>
        <time>2022-05-20T19:35:14Z</time>
      </trkpt>
      <trkpt lat="47.14401" lon="-1.37715">
        <ele>7</ele>
        <time>2022-05-20T19:36:04Z</time>
      </trkpt>
      <trkpt lat="47.14426" lon="-1.37793">
        <ele>9</ele>
        <time>2022-05-20T19:37:23Z</time>
      </trkpt>
      <trkpt lat="47.1443" lon="-1.37856">
        <ele>10</ele>
        <time>2022-05-20T19:38:20Z</time>
      </trkpt>
      <trkpt lat="47.14446" lon="-1.37898">
        <ele>10</ele>
        <time>2022-05-20T19:39:04Z</time>
      </trkpt>
      <trkpt lat="47.14457" lon="-1.37943">
        <ele>9</ele>
        <time>2022-05-20T19:39:47Z</time>
      </trkpt>
      <trkpt lat="47.14472" lon="-1.37975">
        <ele>9</ele>
        <time>2022-05-20T19:40:23Z</time>
      </trkpt>
      <trkpt lat="47.14476" lon="-1.37996">
        <ele>10</ele>
        <time>2022-05-20T19:40:42Z</time>
      </trkpt>
      <trkpt lat="47.14475" lon="-1.38027">
        <ele>10</ele>
        <time>2022-05-20T19:41:10Z</time>
      </trkpt>
      <trkpt lat="47.14471" lon="-1.38041">
        <ele>10</ele>
        <time>2022-05-20T19:41:24Z</time>
      </trkpt>
      <trkpt lat="47.14434" lon="-1.38084">
        <ele>10</ele>
        <time>2022-05-20T19:42:27Z</time>
      </trkpt>
      <trkpt lat="47.14422" lon="-1.38109">
        <ele>10</ele>
        <time>2022-05-20T19:42:55Z</time>
      </trkpt>
      <trkpt lat="47.14371" lon="-1.38184">
        <ele>11</ele>
        <time>2022-05-20T19:44:31Z</time>
      </trkpt>
      <trkpt lat="47.14362" lon="-1.38229">
        <ele>10</ele>
        <time>2022-05-20T19:45:14Z</time>
      </trkpt>
      <trkpt lat="47.14345" lon="-1.38269">
        <ele>9</ele>
        <time>2022-05-20T19:45:57Z</time>
      </trkpt>
      <trkpt lat="47.14327" lon="-1.38347">
        <ele>8</ele>
        <time>2022-05-20T19:47:11Z</time>
      </trkpt>
      <trkpt lat="47.14307" lon="-1.38386">
        <ele>10</ele>
        <time>2022-05-20T19:47:56Z</time>
      </trkpt>
      <trkpt lat="47.14295" lon="-1.38451">
        <ele>10</ele>
        <time>2022-05-20T19:48:57Z</time>
      </trkpt>
      <trkpt lat="47.14278" lon="-1.3851">
        <ele>8</ele>
        <time>2022-05-20T19:49:55Z</time>
      </trkpt>
      <trkpt lat="47.14248" lon="-1.38537">
        <ele>7</ele>
        <time>2022-05-20T19:50:42Z</time>
      </trkpt>
      <trkpt lat="47.14237" lon="-1.38533">
        <ele>8</ele>
        <time>2022-05-20T19:50:57Z</time>
      </trkpt>
    </trkseg>
  </trk>
</gpx>